Terminal Aerodrome Forecast
Issued by NWS Bismarck, ND

Home | Current Version | Previous Version | Graphics & Text | Print | Product List | Glossary On
Versions: 1 2 3 4 5 6 7 8 9 10 11 12 13 14 15 16 17
200
FTUS43 KBIS 211128
TAFISN
TAF
KISN 211128Z 2112/2212 12011KT P6SM SCT200
     FM211600 14019G28KT P6SM SCT200
     FM220400 15016KT P6SM BKN060
     FM220600 16013KT P6SM BKN025
     FM220900 17008KT P6SM VCTS BKN030CB=

USA.gov is the U.S. government's official web portal to all federal, state and local government web resources and services.